createdAt,value
2023-03-05T00:00:01.753Z,1015.27
2023-03-05T00:01:01.751Z,1015.28
2023-03-05T00:02:01.736Z,1015.29
2023-03-05T00:03:01.684Z,1015.28
2023-03-05T00:04:01.686Z,1015.34
2023-03-05T00:05:01.675Z,1015.34
2023-03-05T00:06:01.668Z,1015.33
2023-03-05T00:07:01.632Z,1015.32
2023-03-05T00:08:01.663Z,1015.37
2023-03-05T00:09:01.624Z,1015.27
2023-03-05T00:10:01.680Z,1015.35
2023-03-05T00:11:01.601Z,1015.33
2023-03-05T00:12:01.597Z,1015.29
2023-03-05T00:13:01.580Z,1015.32
2023-03-05T00:14:01.562Z,1015.35
2023-03-05T00:15:01.573Z,1015.33
2023-03-05T00:16:01.585Z,1015.33
2023-03-05T00:17:01.557Z,1015.34
2023-03-05T00:18:01.532Z,1015.37
2023-03-05T00:19:01.510Z,1015.36
2023-03-05T00:20:02.493Z,1015.32
2023-03-05T00:21:01.501Z,1015.36
2023-03-05T00:22:01.515Z,1015.35
2023-03-05T00:23:01.472Z,1015.32
2023-03-05T00:24:01.458Z,1015.34
2023-03-05T00:25:01.439Z,1015.32
2023-03-05T00:26:01.450Z,1015.34
2023-03-05T00:27:01.440Z,1015.33
2023-03-05T00:28:01.413Z,1015.32
2023-03-05T00:29:01.397Z,1015.34
2023-03-05T00:30:01.400Z,1015.33
2023-03-05T00:31:01.439Z,1015.31
2023-03-05T00:32:01.468Z,1015.32
2023-03-05T00:33:01.365Z,1015.33
2023-03-05T00:34:01.379Z,1015.32
2023-03-05T00:35:01.346Z,1015.33
2023-03-05T00:36:01.430Z,1015.30
2023-03-05T00:37:01.313Z,1015.33
2023-03-05T00:38:01.313Z,1015.28
2023-03-05T00:39:01.297Z,1015.31
2023-03-05T00:40:01.372Z,1015.25
2023-03-05T00:41:01.295Z,1015.25
2023-03-05T00:42:01.259Z,1015.24
2023-03-05T00:43:01.252Z,1015.25
2023-03-05T00:44:01.234Z,1015.24
2023-03-05T00:45:01.256Z,1015.23
2023-03-05T00:46:01.236Z,1015.21
2023-03-05T00:47:01.214Z,1015.22
2023-03-05T00:48:01.300Z,1015.20
2023-03-05T00:49:01.189Z,1015.22
2023-03-05T00:50:01.211Z,1015.20
2023-03-05T00:51:01.167Z,1015.19
2023-03-05T00:52:01.146Z,1015.15
2023-03-05T00:53:01.145Z,1015.14
2023-03-05T00:54:01.148Z,1015.16
2023-03-05T00:55:01.176Z,1015.13
2023-03-05T00:56:01.141Z,1015.12
2023-03-05T00:57:01.123Z,1015.13
2023-03-05T00:58:01.084Z,1015.14
2023-03-05T00:59:01.082Z,1015.09
2023-03-05T01:00:01.067Z,1015.07
2023-03-05T01:01:01.066Z,1015.07
2023-03-05T01:02:01.078Z,1015.07
2023-03-05T01:03:01.023Z,1015.09
2023-03-05T01:04:01.013Z,1015.05
2023-03-05T01:05:01.009Z,1015.05
2023-03-05T01:06:01.016Z,1015.06
2023-03-05T01:07:01.018Z,1015.06
2023-03-05T01:08:00.965Z,1015.02
2023-03-05T01:09:00.973Z,1015.03
2023-03-05T01:10:00.962Z,1014.98
2023-03-05T01:11:00.942Z,1014.99
2023-03-05T01:12:00.936Z,1014.97
2023-03-05T01:13:00.914Z,1014.96
2023-03-05T01:14:00.910Z,1014.93
2023-03-05T01:15:00.891Z,1014.93
2023-03-05T01:16:00.910Z,1014.92
2023-03-05T01:17:00.868Z,1014.88
2023-03-05T01:18:00.870Z,1014.91
2023-03-05T01:19:00.845Z,1014.89
2023-03-05T01:20:00.836Z,1014.90
2023-03-05T01:21:00.834Z,1014.87
2023-03-05T01:22:00.810Z,1014.88
2023-03-05T01:23:00.802Z,1014.87
2023-03-05T01:24:00.775Z,1014.88
2023-03-05T01:25:00.776Z,1014.86
2023-03-05T01:26:00.745Z,1014.83
2023-03-05T01:27:00.744Z,1014.84
2023-03-05T01:28:00.725Z,1014.82
2023-03-05T01:29:00.712Z,1014.82
2023-03-05T01:30:00.722Z,1014.84
2023-03-05T01:31:00.690Z,1014.81
2023-03-05T01:32:00.727Z,1014.78
2023-03-05T01:33:00.682Z,1014.79
2023-03-05T01:34:00.668Z,1014.80
2023-03-05T01:35:00.694Z,1014.80
2023-03-05T01:36:00.649Z,1014.75
2023-03-05T01:37:00.683Z,1014.78
2023-03-05T01:38:00.618Z,1014.76
2023-03-05T01:39:00.627Z,1014.80
2023-03-05T01:40:00.646Z,1014.76
2023-03-05T01:41:00.593Z,1014.78
2023-03-05T01:42:00.581Z,1014.76
2023-03-05T01:43:00.565Z,1014.73
2023-03-05T01:44:00.567Z,1014.74
2023-03-05T01:45:00.735Z,1014.75
2023-03-05T01:46:00.583Z,1014.71
2023-03-05T01:47:00.529Z,1014.73
2023-03-05T01:48:00.551Z,1014.75
2023-03-05T01:49:00.512Z,1014.67
2023-03-05T01:50:00.512Z,1014.67
2023-03-05T01:51:00.589Z,1014.64
2023-03-05T01:52:00.471Z,1014.61
2023-03-05T01:53:00.464Z,1014.60
2023-03-05T01:54:00.471Z,1014.65
2023-03-05T01:55:00.486Z,1014.58
2023-03-05T01:56:00.441Z,1014.61
2023-03-05T01:57:00.408Z,1014.53
2023-03-05T01:58:00.385Z,1014.57
2023-03-05T01:59:00.401Z,1014.52
2023-03-05T02:00:00.371Z,1014.53
2023-03-05T02:01:00.416Z,1014.52
2023-03-05T02:02:00.356Z,1014.51
2023-03-05T02:03:00.349Z,1014.51
2023-03-05T02:04:00.411Z,1014.47
2023-03-05T02:05:00.326Z,1014.50
2023-03-05T02:06:00.313Z,1014.45
2023-03-05T02:07:00.297Z,1014.44
2023-03-05T02:08:00.272Z,1014.43
2023-03-05T02:09:00.273Z,1014.44
2023-03-05T02:10:00.254Z,1014.41
2023-03-05T02:11:00.258Z,1014.39
2023-03-05T02:12:00.232Z,1014.39
2023-03-05T02:13:00.230Z,1014.41
2023-03-05T02:14:00.216Z,1014.34
2023-03-05T02:15:00.206Z,1014.38
2023-03-05T02:16:00.202Z,1014.37
2023-03-05T02:17:00.197Z,1014.32
2023-03-05T02:18:00.176Z,1014.34
2023-03-05T02:19:00.169Z,1014.33
2023-03-05T02:20:00.158Z,1014.32
2023-03-05T02:21:00.157Z,1014.35
2023-03-05T02:22:00.126Z,1014.31
2023-03-05T02:23:00.128Z,1014.32
2023-03-05T02:24:00.122Z,1014.31
2023-03-05T02:25:00.107Z,1014.32
2023-03-05T02:26:00.112Z,1014.29
2023-03-05T02:27:00.088Z,1014.24
2023-03-05T02:28:00.086Z,1014.25
2023-03-05T02:29:00.090Z,1014.27
2023-03-05T02:30:00.040Z,1014.28
2023-03-05T02:31:00.047Z,1014.23
2023-03-05T02:32:00.155Z,1014.22
2023-03-05T02:33:00.029Z,1014.21
2023-03-05T02:33:59.999Z,1014.20
2023-03-05T02:35:00.001Z,1014.22
2023-03-05T02:36:00.049Z,1014.17
2023-03-05T02:36:59.970Z,1014.18
2023-03-05T02:37:59.965Z,1014.19
2023-03-05T02:38:59.963Z,1014.12
2023-03-05T02:39:59.934Z,1014.14
2023-03-05T02:40:59.945Z,1014.10
2023-03-05T02:41:59.932Z,1014.15
2023-03-05T02:42:59.908Z,1014.13
2023-03-05T02:43:59.893Z,1014.10
2023-03-05T02:44:59.895Z,1014.07
2023-03-05T02:45:59.965Z,1014.04
2023-03-05T02:46:59.870Z,1014.05
2023-03-05T02:47:59.852Z,1014.04
2023-03-05T02:48:59.844Z,1014.02
2023-03-05T02:49:59.831Z,1013.99
2023-03-05T02:50:59.841Z,1014.01
2023-03-05T02:51:59.811Z,1014.01
2023-03-05T02:52:59.802Z,1014.01
2023-03-05T02:53:59.804Z,1013.99
2023-03-05T02:54:59.800Z,1013.96
2023-03-05T02:55:59.783Z,1013.95
2023-03-05T02:56:59.786Z,1014.01
2023-03-05T02:57:59.779Z,1013.97
2023-03-05T02:58:59.744Z,1013.96
2023-03-05T02:59:59.837Z,1013.94
2023-03-05T03:00:59.758Z,1013.92
2023-03-05T03:01:59.700Z,1013.90
2023-03-05T03:02:59.774Z,1013.94
2023-03-05T03:03:59.746Z,1013.94
2023-03-05T03:04:59.673Z,1013.93
2023-03-05T03:05:59.702Z,1013.87
2023-03-05T03:06:59.651Z,1013.91
2023-03-05T03:07:59.637Z,1013.89
2023-03-05T03:08:59.629Z,1013.88
2023-03-05T03:09:59.605Z,1013.89
2023-03-05T03:10:59.626Z,1013.88
2023-03-05T03:11:59.593Z,1013.89
2023-03-05T03:12:59.624Z,1013.87
2023-03-05T03:13:59.624Z,1013.87
2023-03-05T03:14:59.594Z,1013.86
2023-03-05T03:15:59.565Z,1013.84
2023-03-05T03:16:59.649Z,1013.87
2023-03-05T03:17:59.526Z,1013.81
2023-03-05T03:18:59.524Z,1013.86
2023-03-05T03:19:59.505Z,1013.83
2023-03-05T03:20:59.520Z,1013.86
2023-03-05T03:21:59.478Z,1013.84
2023-03-05T03:22:59.496Z,1013.84
2023-03-05T03:23:59.473Z,1013.82
2023-03-05T03:24:59.448Z,1013.80
2023-03-05T03:25:59.463Z,1013.81
2023-03-05T03:26:59.465Z,1013.77
2023-03-05T03:27:59.441Z,1013.76
2023-03-05T03:28:59.407Z,1013.79
2023-03-05T03:29:59.406Z,1013.78
2023-03-05T03:30:59.440Z,1013.76
2023-03-05T03:31:59.410Z,1013.78
2023-03-05T03:32:59.362Z,1013.72
2023-03-05T03:33:59.359Z,1013.75
2023-03-05T03:34:59.351Z,1013.76
2023-03-05T03:35:59.437Z,1013.69
2023-03-05T03:36:59.322Z,1013.68
2023-03-05T03:37:59.328Z,1013.66
2023-03-05T03:38:59.305Z,1013.70
2023-03-05T03:39:59.311Z,1013.67
2023-03-05T03:40:59.404Z,1013.67
2023-03-05T03:41:59.343Z,1013.67
2023-03-05T03:42:59.254Z,1013.64
2023-03-05T03:43:59.243Z,1013.63
2023-03-05T03:44:59.243Z,1013.62
2023-03-05T03:45:59.305Z,1013.60
2023-03-05T03:46:59.213Z,1013.59
2023-03-05T03:47:59.202Z,1013.56
2023-03-05T03:48:59.199Z,1013.58
2023-03-05T03:49:59.207Z,1013.59
2023-03-05T03:50:59.208Z,1013.53
2023-03-05T03:51:59.154Z,1013.58
2023-03-05T03:52:59.159Z,1013.52
2023-03-05T03:53:59.133Z,1013.47
2023-03-05T03:54:59.133Z,1013.50
2023-03-05T03:55:59.125Z,1013.49
2023-03-05T03:56:59.113Z,1013.50
2023-03-05T03:57:59.098Z,1013.49
2023-03-05T03:58:59.095Z,1013.47
2023-03-05T03:59:59.085Z,1013.42
2023-03-05T04:00:59.072Z,1013.45
2023-03-05T04:01:59.053Z,1013.42
2023-03-05T04:02:59.053Z,1013.39
2023-03-05T04:03:59.094Z,1013.42
2023-03-05T04:04:59.026Z,1013.41
2023-03-05T04:05:59.035Z,1013.38
2023-03-05T04:06:59.006Z,1013.41
2023-03-05T04:07:58.990Z,1013.42
2023-03-05T04:08:58.976Z,1013.37
2023-03-05T04:09:58.972Z,1013.34
2023-03-05T04:10:58.982Z,1013.37
2023-03-05T04:11:58.947Z,1013.36
2023-03-05T04:12:58.952Z,1013.35
2023-03-05T04:13:58.916Z,1013.32
2023-03-05T04:14:58.918Z,1013.34
2023-03-05T04:15:58.980Z,1013.32
2023-03-05T04:16:58.904Z,1013.36
2023-03-05T04:17:58.878Z,1013.30
2023-03-05T04:18:58.877Z,1013.28
2023-03-05T04:19:58.858Z,1013.24
2023-03-05T04:20:58.869Z,1013.24
2023-03-05T04:21:58.849Z,1013.23
2023-03-05T04:22:58.828Z,1013.23
2023-03-05T04:23:58.819Z,1013.22
2023-03-05T04:24:58.811Z,1013.20
2023-03-05T04:25:58.810Z,1013.17
2023-03-05T04:26:58.791Z,1013.20
2023-03-05T04:27:58.767Z,1013.18
2023-03-05T04:28:58.764Z,1013.14
2023-03-05T04:29:58.756Z,1013.15
2023-03-05T04:30:58.778Z,1013.17
2023-03-05T04:31:58.776Z,1013.15
2023-03-05T04:32:58.714Z,1013.14
2023-03-05T04:33:58.706Z,1013.11
2023-03-05T04:34:58.697Z,1013.11
2023-03-05T04:35:58.767Z,1013.11
2023-03-05T04:36:58.681Z,1013.09
2023-03-05T04:37:58.806Z,1013.10
2023-03-05T04:38:58.659Z,1013.09
2023-03-05T04:39:58.645Z,1013.05
2023-03-05T04:40:58.659Z,1013.06
2023-03-05T04:41:58.651Z,1013.07
2023-03-05T04:42:58.613Z,1013.07
2023-03-05T04:43:58.583Z,1013.08
2023-03-05T04:44:58.582Z,1013.05
2023-03-05T04:45:58.673Z,1013.04
2023-03-05T04:46:58.585Z,1013.04
2023-03-05T04:47:58.542Z,1013.04
2023-03-05T04:48:58.541Z,1013.03
2023-03-05T04:49:58.521Z,1013.02
2023-03-05T04:50:58.520Z,1013.02
2023-03-05T04:51:58.511Z,1013.02
2023-03-05T04:52:58.495Z,1013.03
2023-03-05T04:53:58.502Z,1013.01
2023-03-05T04:54:58.470Z,1013.04
2023-03-05T04:55:58.472Z,1013.02
2023-03-05T04:56:58.444Z,1013.00
2023-03-05T04:57:58.465Z,1012.96
2023-03-05T04:58:58.433Z,1012.97
2023-03-05T04:59:58.413Z,1012.92
2023-03-05T05:00:58.402Z,1012.91
2023-03-05T05:01:58.584Z,1012.90
2023-03-05T05:02:58.516Z,1012.89
2023-03-05T05:03:58.363Z,1012.87
2023-03-05T05:04:58.363Z,1012.87
2023-03-05T05:05:58.346Z,1012.86
2023-03-05T05:06:58.334Z,1012.84
2023-03-05T05:07:58.447Z,1012.84
2023-03-05T05:08:58.325Z,1012.83
2023-03-05T05:09:58.362Z,1012.81
2023-03-05T05:10:58.306Z,1012.84
2023-03-05T05:11:58.292Z,1012.88
2023-03-05T05:12:58.276Z,1012.85
2023-03-05T05:13:58.257Z,1012.82
2023-03-05T05:14:58.245Z,1012.80
2023-03-05T05:15:58.342Z,1012.81
2023-03-05T05:16:58.246Z,1012.82
2023-03-05T05:17:58.224Z,1012.78
2023-03-05T05:18:58.221Z,1012.80
2023-03-05T05:19:58.365Z,1012.74
2023-03-05T05:20:58.190Z,1012.73
2023-03-05T05:21:58.177Z,1012.72
2023-03-05T05:22:58.165Z,1012.72
2023-03-05T05:23:58.165Z,1012.74
2023-03-05T05:24:58.136Z,1012.74
2023-03-05T05:25:58.193Z,1012.75
2023-03-05T05:26:58.125Z,1012.74
2023-03-05T05:27:58.206Z,1012.74
2023-03-05T05:28:58.096Z,1012.74
2023-03-05T05:29:58.077Z,1012.73
2023-03-05T05:30:58.079Z,1012.72
2023-03-05T05:31:58.078Z,1012.72
2023-03-05T05:32:58.087Z,1012.66
2023-03-05T05:33:58.039Z,1012.71
2023-03-05T05:34:58.050Z,1012.70
2023-03-05T05:35:58.147Z,1012.67
2023-03-05T05:36:58.008Z,1012.67
2023-03-05T05:37:58.020Z,1012.68
2023-03-05T05:38:57.990Z,1012.69
2023-03-05T05:39:58.071Z,1012.66
2023-03-05T05:40:57.991Z,1012.70
2023-03-05T05:41:58.041Z,1012.69
2023-03-05T05:42:57.961Z,1012.67
2023-03-05T05:43:58.111Z,1012.73
2023-03-05T05:44:57.983Z,1012.68
2023-03-05T05:45:58.149Z,1012.69
2023-03-05T05:46:57.909Z,1012.68
2023-03-05T05:47:57.904Z,1012.68
2023-03-05T05:48:57.885Z,1012.66
2023-03-05T05:49:57.963Z,1012.62
2023-03-05T05:50:57.878Z,1012.66
2023-03-05T05:51:57.986Z,1012.69
2023-03-05T05:52:57.849Z,1012.66
2023-03-05T05:53:57.867Z,1012.66
2023-03-05T05:54:57.816Z,1012.69
2023-03-05T05:55:57.826Z,1012.71
2023-03-05T05:56:57.796Z,1012.70
2023-03-05T05:57:57.825Z,1012.70
2023-03-05T05:58:57.775Z,1012.69
2023-03-05T05:59:57.879Z,1012.66
2023-03-05T06:00:57.765Z,1012.69
2023-03-05T06:01:57.848Z,1012.66
2023-03-05T06:02:57.766Z,1012.69
2023-03-05T06:03:57.740Z,1012.69
2023-03-05T06:04:58.316Z,1012.68
2023-03-05T06:05:57.724Z,1012.66
2023-03-05T06:06:57.686Z,1012.69
2023-03-05T06:07:57.786Z,1012.63
2023-03-05T06:08:57.682Z,1012.63
2023-03-05T06:09:57.656Z,1012.67
2023-03-05T06:10:57.645Z,1012.68
2023-03-05T06:11:57.638Z,1012.64
2023-03-05T06:12:57.618Z,1012.64
2023-03-05T06:13:57.622Z,1012.64
2023-03-05T06:14:57.607Z,1012.67
2023-03-05T06:15:57.655Z,1012.71
2023-03-05T06:16:57.594Z,1012.68
2023-03-05T06:17:57.568Z,1012.70
2023-03-05T06:18:57.557Z,1012.73
2023-03-05T06:19:57.560Z,1012.68
2023-03-05T06:20:57.569Z,1012.71
2023-03-05T06:21:57.519Z,1012.73
2023-03-05T06:22:57.508Z,1012.74
2023-03-05T06:23:57.508Z,1012.76
2023-03-05T06:24:57.490Z,1012.73
2023-03-05T06:25:57.498Z,1012.74
2023-03-05T06:26:57.478Z,1012.75
2023-03-05T06:27:57.481Z,1012.71
2023-03-05T06:28:57.457Z,1012.73
2023-03-05T06:29:57.476Z,1012.74
2023-03-05T06:30:57.524Z,1012.73
2023-03-05T06:31:57.466Z,1012.73
2023-03-05T06:32:57.410Z,1012.73
2023-03-05T06:33:57.397Z,1012.69
2023-03-05T06:34:57.389Z,1012.71
2023-03-05T06:35:57.985Z,1012.69
2023-03-05T06:36:57.369Z,1012.71
2023-03-05T06:37:57.338Z,1012.73
2023-03-05T06:38:57.334Z,1012.72
2023-03-05T06:39:57.319Z,1012.71
2023-03-05T06:40:57.328Z,1012.70
2023-03-05T06:41:57.298Z,1012.72
2023-03-05T06:42:57.298Z,1012.71
2023-03-05T06:43:57.287Z,1012.72
2023-03-05T06:44:57.280Z,1012.71
2023-03-05T06:45:57.367Z,1012.71
2023-03-05T06:46:57.248Z,1012.71
2023-03-05T06:47:57.238Z,1012.71
2023-03-05T06:48:57.227Z,1012.70
2023-03-05T06:49:57.218Z,1012.74
2023-03-05T06:50:57.218Z,1012.70
2023-03-05T06:51:57.200Z,1012.73
2023-03-05T06:52:57.180Z,1012.69
2023-03-05T06:53:57.184Z,1012.71
2023-03-05T06:54:57.158Z,1012.71
2023-03-05T06:55:57.170Z,1012.71
2023-03-05T06:56:57.139Z,1012.71
2023-03-05T06:57:57.128Z,1012.70
2023-03-05T06:58:57.120Z,1012.69
2023-03-05T06:59:57.113Z,1012.70
2023-03-05T07:00:57.149Z,1012.70
2023-03-05T07:01:57.100Z,1012.71
2023-03-05T07:02:57.082Z,1012.66
2023-03-05T07:03:57.069Z,1012.71
2023-03-05T07:04:57.057Z,1012.65
2023-03-05T07:05:57.059Z,1012.64
2023-03-05T07:06:57.026Z,1012.64
2023-03-05T07:07:57.020Z,1012.66
2023-03-05T07:08:57.025Z,1012.63
2023-03-05T07:09:57.005Z,1012.60
2023-03-05T07:10:57.002Z,1012.59
2023-03-05T07:11:56.988Z,1012.58
2023-03-05T07:12:56.981Z,1012.60
2023-03-05T07:13:56.959Z,1012.55
2023-03-05T07:14:56.949Z,1012.57
2023-03-05T07:15:57.028Z,1012.54
2023-03-05T07:16:56.923Z,1012.56
2023-03-05T07:17:56.922Z,1012.54
2023-03-05T07:18:56.899Z,1012.55
2023-03-05T07:19:56.892Z,1012.55
2023-03-05T07:20:56.890Z,1012.49
2023-03-05T07:21:56.881Z,1012.49
2023-03-05T07:22:56.861Z,1012.53
2023-03-05T07:23:56.863Z,1012.52
2023-03-05T07:24:56.836Z,1012.47
2023-03-05T07:25:56.841Z,1012.41
2023-03-05T07:26:56.813Z,1012.47
2023-03-05T07:27:56.812Z,1012.40
2023-03-05T07:28:56.791Z,1012.40
2023-03-05T07:29:56.785Z,1012.41
2023-03-05T07:30:56.811Z,1012.43
2023-03-05T07:31:56.770Z,1012.43
2023-03-05T07:32:56.768Z,1012.40
2023-03-05T07:33:56.731Z,1012.43
2023-03-05T07:34:56.735Z,1012.40
2023-03-05T07:35:56.801Z,1012.42
2023-03-05T07:36:56.702Z,1012.40
2023-03-05T07:37:56.698Z,1012.33
2023-03-05T07:38:56.688Z,1012.37
2023-03-05T07:39:56.665Z,1012.39
2023-03-05T07:40:56.685Z,1012.33
2023-03-05T07:41:56.663Z,1012.35
2023-03-05T07:42:56.843Z,1012.32
2023-03-05T07:43:57.137Z,1012.34
2023-03-05T07:44:56.713Z,1012.30
2023-03-05T07:45:56.838Z,1012.33
2023-03-05T07:46:56.660Z,1012.28
2023-03-05T07:47:56.922Z,1012.30
2023-03-05T07:48:56.983Z,1012.28
2023-03-05T07:49:56.673Z,1012.29
2023-03-05T07:50:56.693Z,1012.28
2023-03-05T07:51:56.567Z,1012.31
2023-03-05T07:52:56.760Z,1012.26
2023-03-05T07:53:56.570Z,1012.27
2023-03-05T07:54:56.637Z,1012.21
2023-03-05T07:55:56.628Z,1012.25
2023-03-05T07:56:56.514Z,1012.21
2023-03-05T07:57:56.506Z,1012.20
2023-03-05T07:58:56.558Z,1012.22
2023-03-05T07:59:56.504Z,1012.27
2023-03-05T08:00:56.519Z,1012.22
2023-03-05T08:01:56.666Z,1012.24
2023-03-05T08:02:56.464Z,1012.22
2023-03-05T08:03:56.516Z,1012.23
2023-03-05T08:04:56.472Z,1012.24
2023-03-05T08:05:56.428Z,1012.16
2023-03-05T08:06:56.602Z,1012.21
2023-03-05T08:07:56.378Z,1012.21
2023-03-05T08:08:56.457Z,1012.16
2023-03-05T08:09:56.374Z,1012.16
2023-03-05T08:10:56.447Z,1012.18
2023-03-05T08:11:56.346Z,1012.16
2023-03-05T08:12:56.383Z,1012.15
2023-03-05T08:13:56.390Z,1012.07
2023-03-05T08:14:56.337Z,1012.11
2023-03-05T08:15:56.380Z,1012.11
2023-03-05T08:16:56.344Z,1012.13
2023-03-05T08:17:56.497Z,1012.13
2023-03-05T08:18:56.279Z,1012.11
2023-03-05T08:19:56.393Z,1012.09
2023-03-05T08:20:56.472Z,1012.15
2023-03-05T08:21:56.541Z,1012.08
2023-03-05T08:22:56.321Z,1012.13
2023-03-05T08:23:56.221Z,1012.05
2023-03-05T08:24:56.223Z,1012.09
2023-03-05T08:25:56.290Z,1012.05
2023-03-05T08:26:56.218Z,1012.10
2023-03-05T08:27:56.182Z,1012.05
2023-03-05T08:28:56.221Z,1012.04
2023-03-05T08:29:56.159Z,1012.08
2023-03-05T08:30:56.211Z,1012.05
2023-03-05T08:31:56.269Z,1012.06
2023-03-05T08:32:56.204Z,1012.04
2023-03-05T08:33:56.168Z,1012.03
2023-03-05T08:34:56.115Z,1012.00
2023-03-05T08:35:56.159Z,1012.01
2023-03-05T08:36:56.129Z,1012.00
2023-03-05T08:37:56.125Z,1012.00
2023-03-05T08:38:56.405Z,1011.99
2023-03-05T08:39:56.241Z,1011.99
2023-03-05T08:40:56.186Z,1011.98
2023-03-05T08:41:56.221Z,1011.98
2023-03-05T08:42:56.069Z,1011.96
2023-03-05T08:43:56.002Z,1011.96
2023-03-05T08:44:55.989Z,1011.91
2023-03-05T08:45:56.091Z,1011.94
2023-03-05T08:46:56.282Z,1011.87
2023-03-05T08:47:55.984Z,1011.91
2023-03-05T08:48:56.100Z,1011.89
2023-03-05T08:49:55.965Z,1011.86
2023-03-05T08:50:56.122Z,1011.86
2023-03-05T08:51:55.980Z,1011.87
2023-03-05T08:52:55.902Z,1011.86
2023-03-05T08:53:55.904Z,1011.81
2023-03-05T08:54:55.887Z,1011.86
2023-03-05T08:55:55.881Z,1011.85
2023-03-05T08:56:55.956Z,1011.89
2023-03-05T08:57:55.976Z,1011.89
2023-03-05T08:58:55.955Z,1011.90
2023-03-05T08:59:55.853Z,1011.86
2023-03-05T09:00:55.939Z,1011.82
2023-03-05T09:01:56.085Z,1011.86
2023-03-05T09:02:55.933Z,1011.82
2023-03-05T09:03:55.883Z,1011.85
2023-03-05T09:04:55.821Z,1011.77
2023-03-05T09:05:55.814Z,1011.78
2023-03-05T09:06:56.035Z,1011.76
2023-03-05T09:07:55.746Z,1011.75
2023-03-05T09:08:56.040Z,1011.76
2023-03-05T09:09:55.698Z,1011.72
2023-03-05T09:10:55.723Z,1011.74
2023-03-05T09:11:56.247Z,1011.73
2023-03-05T09:12:55.721Z,1011.70
2023-03-05T09:13:55.727Z,1011.68
2023-03-05T09:14:55.674Z,1011.70
2023-03-05T09:15:55.804Z,1011.67
2023-03-05T09:16:56.253Z,1011.68
2023-03-05T09:17:55.855Z,1011.71
2023-03-05T09:18:55.636Z,1011.66
2023-03-05T09:19:55.736Z,1011.66
2023-03-05T09:20:55.709Z,1011.65
2023-03-05T09:21:57.113Z,1011.60
2023-03-05T09:22:55.748Z,1011.60
2023-03-05T09:23:55.567Z,1011.55
2023-03-05T09:24:55.809Z,1011.57
2023-03-05T09:25:55.727Z,1011.62
2023-03-05T09:26:55.644Z,1011.60
2023-03-05T09:27:56.029Z,1011.58
2023-03-05T09:28:55.651Z,1011.57
2023-03-05T09:29:55.659Z,1011.52
2023-03-05T09:30:55.519Z,1011.54
2023-03-05T09:31:56.125Z,1011.47
2023-03-05T09:32:55.508Z,1011.49
2023-03-05T09:33:56.262Z,1011.45
2023-03-05T09:34:55.450Z,1011.49
2023-03-05T09:35:55.590Z,1011.45
2023-03-05T09:36:55.568Z,1011.45
2023-03-05T09:37:55.480Z,1011.46
2023-03-05T09:38:55.488Z,1011.44
2023-03-05T09:39:55.431Z,1011.43
2023-03-05T09:40:55.559Z,1011.37
2023-03-05T09:41:55.600Z,1011.41
2023-03-05T09:42:55.402Z,1011.40
2023-03-05T09:43:55.338Z,1011.37
2023-03-05T09:44:55.337Z,1011.37
2023-03-05T09:45:55.357Z,1011.36
2023-03-05T09:46:55.837Z,1011.37
2023-03-05T09:47:55.430Z,1011.39
2023-03-05T09:48:55.298Z,1011.37
2023-03-05T09:49:55.365Z,1011.33
2023-03-05T09:50:55.312Z,1011.35
2023-03-05T09:51:55.315Z,1011.32
2023-03-05T09:52:55.402Z,1011.31
2023-03-05T09:53:55.312Z,1011.32
2023-03-05T09:54:55.357Z,1011.26
2023-03-05T09:55:55.201Z,1011.20
2023-03-05T09:56:55.317Z,1011.22
2023-03-05T09:57:55.167Z,1011.23
2023-03-05T09:58:56.242Z,1011.16
2023-03-05T09:59:55.155Z,1011.12
2023-03-05T10:00:55.134Z,1011.11
2023-03-05T10:01:55.143Z,1011.15
2023-03-05T10:02:55.177Z,1011.11
2023-03-05T10:03:55.190Z,1011.19
2023-03-05T10:04:55.126Z,1011.12
2023-03-05T10:05:55.088Z,1010.90
2023-03-05T10:06:55.087Z,1010.96
2023-03-05T10:07:55.072Z,1010.96
2023-03-05T10:08:55.043Z,1010.91
2023-03-05T10:09:55.054Z,1010.91
2023-03-05T10:10:55.036Z,1010.95
2023-03-05T10:11:55.067Z,1010.87
2023-03-05T10:12:55.006Z,1010.93
2023-03-05T10:13:54.999Z,1010.82
2023-03-05T10:14:54.981Z,1010.82
2023-03-05T10:15:54.970Z,1010.79
2023-03-05T10:16:55.012Z,1010.82
2023-03-05T10:17:54.947Z,1010.79
2023-03-05T10:18:54.937Z,1010.81
2023-03-05T10:19:54.942Z,1010.83
2023-03-05T10:20:54.913Z,1010.82
2023-03-05T10:21:54.913Z,1010.85
2023-03-05T10:22:54.896Z,1010.82
2023-03-05T10:23:54.912Z,1010.81
2023-03-05T10:24:54.859Z,1010.83
2023-03-05T10:25:54.867Z,1010.78
2023-03-05T10:26:54.892Z,1010.80
2023-03-05T10:27:54.841Z,1010.79
2023-03-05T10:28:54.828Z,1010.82
2023-03-05T10:29:54.832Z,1010.79
2023-03-05T10:30:54.812Z,1010.81
2023-03-05T10:31:54.831Z,1010.79
2023-03-05T10:32:54.781Z,1010.79
2023-03-05T10:33:54.901Z,1010.75
2023-03-05T10:34:54.761Z,1010.74
2023-03-05T10:35:54.819Z,1010.71
2023-03-05T10:36:56.219Z,1010.68
2023-03-05T10:37:54.729Z,1010.65
2023-03-05T10:38:54.729Z,1010.65
2023-03-05T10:39:54.729Z,1010.64
2023-03-05T10:40:54.694Z,1010.64
2023-03-05T10:41:54.691Z,1010.63
2023-03-05T10:42:54.675Z,1010.63
2023-03-05T10:43:54.665Z,1010.64
2023-03-05T10:44:54.658Z,1010.62
2023-03-05T10:45:54.694Z,1010.61
2023-03-05T10:46:55.989Z,1010.61
2023-03-05T10:47:54.641Z,1010.64
2023-03-05T10:48:54.602Z,1010.63
2023-03-05T10:49:54.624Z,1010.60
2023-03-05T10:50:54.582Z,1010.60
2023-03-05T10:51:54.580Z,1010.58
2023-03-05T10:52:54.565Z,1010.56
2023-03-05T10:53:54.554Z,1010.58
2023-03-05T10:54:54.553Z,1010.56
2023-03-05T10:55:54.535Z,1010.53
2023-03-05T10:56:54.526Z,1010.53
2023-03-05T10:57:54.504Z,1010.56
2023-03-05T10:58:54.504Z,1010.49
2023-03-05T10:59:54.527Z,1010.48
2023-03-05T11:00:54.616Z,1010.46
2023-03-05T11:01:54.464Z,1010.52
2023-03-05T11:02:54.542Z,1010.51
2023-03-05T11:03:54.442Z,1010.46
2023-03-05T11:04:54.486Z,1010.42
2023-03-05T11:05:54.423Z,1010.46
2023-03-05T11:06:54.407Z,1010.45
2023-03-05T11:07:54.413Z,1010.43
2023-03-05T11:08:54.404Z,1010.42
2023-03-05T11:09:54.374Z,1010.44
2023-03-05T11:10:54.354Z,1010.45
2023-03-05T11:11:54.363Z,1010.44
2023-03-05T11:12:54.359Z,1010.39
2023-03-05T11:13:54.336Z,1010.43
2023-03-05T11:14:54.312Z,1010.43
2023-03-05T11:15:54.349Z,1010.42
2023-03-05T11:16:54.294Z,1010.38
2023-03-05T11:17:54.297Z,1010.45
2023-03-05T11:18:54.272Z,1010.41
2023-03-05T11:19:54.274Z,1010.40
2023-03-05T11:20:54.256Z,1010.37
2023-03-05T11:21:54.243Z,1010.39
2023-03-05T11:22:54.233Z,1010.40
2023-03-05T11:23:54.222Z,1010.35
2023-03-05T11:24:54.202Z,1010.38
2023-03-05T11:25:54.195Z,1010.36
2023-03-05T11:26:54.182Z,1010.35
2023-03-05T11:27:54.852Z,1010.36
2023-03-05T11:28:54.162Z,1010.35
2023-03-05T11:29:54.159Z,1010.38
2023-03-05T11:30:54.168Z,1010.33
2023-03-05T11:31:54.146Z,1010.34
2023-03-05T11:32:54.143Z,1010.35
2023-03-05T11:33:54.112Z,1010.39
2023-03-05T11:34:54.112Z,1010.36
2023-03-05T11:35:54.125Z,1010.39
2023-03-05T11:36:54.076Z,1010.38
2023-03-05T11:37:54.074Z,1010.38
2023-03-05T11:38:54.055Z,1010.36
2023-03-05T11:39:54.054Z,1010.36
2023-03-05T11:40:54.034Z,1010.41
2023-03-05T11:41:54.030Z,1010.38
2023-03-05T11:42:54.006Z,1010.38
2023-03-05T11:43:54.007Z,1010.39
2023-03-05T11:44:53.998Z,1010.39
2023-03-05T11:45:54.022Z,1010.41
2023-03-05T11:46:53.966Z,1010.35
2023-03-05T11:47:53.980Z,1010.31
2023-03-05T11:48:53.944Z,1010.29
2023-03-05T11:49:53.945Z,1010.27
2023-03-05T11:50:53.918Z,1010.26
2023-03-05T11:51:53.913Z,1010.28
2023-03-05T11:52:53.917Z,1010.22
2023-03-05T11:53:53.891Z,1010.18
2023-03-05T11:54:53.887Z,1010.14
2023-03-05T11:55:53.871Z,1010.12
2023-03-05T11:56:53.862Z,1010.10
2023-03-05T11:57:53.859Z,1010.07
2023-03-05T11:58:53.841Z,1010.07
2023-03-05T11:59:53.837Z,1010.03
2023-03-05T12:00:53.811Z,1010.02
2023-03-05T12:01:53.812Z,1009.98
2023-03-05T12:02:53.874Z,1009.96
2023-03-05T12:03:53.833Z,1009.95
2023-03-05T12:04:53.800Z,1010.01